sensor_id;sensor_type;location;lat;lon;timestamp;temperature;humidity
32107;DHT22;18622;51.998;10.440;2023-07-28T03:34:48;19.60;99.90
32107;DHT22;18622;51.998;10.440;2023-07-28T03:37:15;19.60;99.90
32107;DHT22;18622;51.998;10.440;2023-07-28T03:39:43;19.50;99.90
32107;DHT22;18622;51.998;10.440;2023-07-28T03:42:11;19.50;99.90
32107;DHT22;18622;51.998;10.440;2023-07-28T03:44:42;19.50;99.90
32107;DHT22;18622;51.998;10.440;2023-07-28T03:47:09;19.50;99.90
32107;DHT22;18622;51.998;10.440;2023-07-28T03:49:37;19.50;99.90
32107;DHT22;18622;51.998;10.440;2023-07-28T03:52:05;19.50;99.90
32107;DHT22;18622;51.998;10.440;2023-07-28T03:54:33;19.50;99.90
32107;DHT22;18622;51.998;10.440;2023-07-28T03:57:01;19.50;99.90
32107;DHT22;18622;51.998;10.440;2023-07-28T03:59:28;19.50;99.90
32107;DHT22;18622;51.998;10.440;2023-07-28T04:01:56;19.50;99.90
32107;DHT22;18622;51.998;10.440;2023-07-28T04:04:25;19.50;99.90
32107;DHT22;18622;51.998;10.440;2023-07-28T04:06:52;19.50;99.90
32107;DHT22;18622;51.998;10.440;2023-07-28T04:09:21;19.50;99.90
32107;DHT22;18622;51.998;10.440;2023-07-28T04:11:49;19.50;99.90
32107;DHT22;18622;51.998;10.440;2023-07-28T04:14:17;19.60;99.90
32107;DHT22;18622;51.998;10.440;2023-07-28T04:16:44;19.60;99.90
32107;DHT22;18622;51.998;10.440;2023-07-28T04:19:12;19.70;99.90
32107;DHT22;18622;51.998;10.440;2023-07-28T04:21:40;19.70;99.90
32107;DHT22;18622;51.998;10.440;2023-07-28T04:24:08;19.70;99.90
32107;DHT22;18622;51.998;10.440;2023-07-28T04:26:36;19.80;99.90
32107;DHT22;18622;51.998;10.440;2023-07-28T04:29:04;19.90;99.90
32107;DHT22;18622;51.998;10.440;2023-07-28T04:31:32;19.90;99.90
32107;DHT22;18622;51.998;10.440;2023-07-28T04:34:02;19.90;99.90
32107;DHT22;18622;51.998;10.440;2023-07-28T04:36:29;19.90;99.90
32107;DHT22;18622;51.998;10.440;2023-07-28T04:38:57;19.90;99.90
32107;DHT22;18622;51.998;10.440;2023-07-28T04:41:25;19.90;99.90
32107;DHT22;18622;51.998;10.440;2023-07-28T04:43:53;19.90;99.90
32107;DHT22;18622;51.998;10.440;2023-07-28T04:46:21;20.00;99.90
32107;DHT22;18622;51.998;10.440;2023-07-28T04:48:48;20.00;99.90
32107;DHT22;18622;51.998;10.440;2023-07-28T04:51:16;20.00;99.90
32107;DHT22;18622;51.998;10.440;2023-07-28T04:53:44;20.00;99.90
32107;DHT22;18622;51.998;10.440;2023-07-28T04:56:12;20.00;99.90
32107;DHT22;18622;51.998;10.440;2023-07-28T04:58:40;20.10;99.90
32107;DHT22;18622;51.998;10.440;2023-07-28T05:03:45;20.10;99.90
32107;DHT22;18622;51.998;10.440;2023-07-28T05:06:13;20.20;99.90
32107;DHT22;18622;51.998;10.440;2023-07-28T05:08:41;20.30;99.90
32107;DHT22;18622;51.998;10.440;2023-07-28T05:11:09;20.30;99.90
32107;DHT22;18622;51.998;10.440;2023-07-28T05:13:37;20.30;99.90
32107;DHT22;18622;51.998;10.440;2023-07-28T05:16:05;20.30;99.90
32107;DHT22;18622;51.998;10.440;2023-07-28T05:18:32;20.30;99.90
32107;DHT22;18622;51.998;10.440;2023-07-28T05:21:00;20.40;99.90
32107;DHT22;18622;51.998;10.440;2023-07-28T05:23:28;20.40;99.90
32107;DHT22;18622;51.998;10.440;2023-07-28T05:25:56;20.50;99.90
32107;DHT22;18622;51.998;10.440;2023-07-28T05:28:24;20.60;99.90
32107;DHT22;18622;51.998;10.440;2023-07-28T05:30:51;20.60;99.90
32107;DHT22;18622;51.998;10.440;2023-07-28T05:33:19;20.50;99.90
32107;DHT22;18622;51.998;10.440;2023-07-28T05:35:47;20.40;99.90
32107;DHT22;18622;51.998;10.440;2023-07-28T05:38:17;20.40;99.90
32107;DHT22;18622;51.998;10.440;2023-07-28T05:40:45;20.40;99.90
32107;DHT22;18622;51.998;10.440;2023-07-28T05:43:13;20.40;99.90
32107;DHT22;18622;51.998;10.440;2023-07-28T05:45:46;20.40;99.90
32107;DHT22;18622;51.998;10.440;2023-07-28T05:48:12;20.50;99.90
32107;DHT22;18622;51.998;10.440;2023-07-28T05:50:40;20.50;99.90
32107;DHT22;18622;51.998;10.440;2023-07-28T05:53:07;20.50;99.90
32107;DHT22;18622;51.998;10.440;2023-07-28T05:55:35;20.60;99.90
32107;DHT22;18622;51.998;10.440;2023-07-28T05:58:03;20.60;99.90
32107;DHT22;18622;51.998;10.440;2023-07-28T06:00:31;20.50;99.90
32107;DHT22;18622;51.998;10.440;2023-07-28T06:02:58;20.60;99.90
32107;DHT22;18622;51.998;10.440;2023-07-28T06:05:26;20.50;99.90
32107;DHT22;18622;51.998;10.440;2023-07-28T06:07:54;20.60;99.90
32107;DHT22;18622;51.998;10.440;2023-07-28T06:10:22;20.60;99.90
32107;DHT22;18622;51.998;10.440;2023-07-28T06:12:50;20.70;99.90
32107;DHT22;18622;51.998;10.440;2023-07-28T06:15:17;20.70;99.90
32107;DHT22;18622;51.998;10.440;2023-07-28T06:17:45;20.70;99.90
32107;DHT22;18622;51.998;10.440;2023-07-28T06:20:13;20.80;99.90
32107;DHT22;18622;51.998;10.440;2023-07-28T06:22:41;20.90;99.90
32107;DHT22;18622;51.998;10.440;2023-07-28T06:25:09;21.00;99.90
32107;DHT22;18622;51.998;10.440;2023-07-28T06:27:37;20.90;99.90
32107;DHT22;18622;51.998;10.440;2023-07-28T06:30:06;20.90;99.90
32107;DHT22;18622;51.998;10.440;2023-07-28T06:32:34;21.00;99.90
32107;DHT22;18622;51.998;10.440;2023-07-28T06:35:01;21.00;99.90
32107;DHT22;18622;51.998;10.440;2023-07-28T06:37:29;21.10;99.90
32107;DHT22;18622;51.998;10.440;2023-07-28T06:39:57;21.10;99.90
32107;DHT22;18622;51.998;10.440;2023-07-28T06:42:25;21.10;99.90
32107;DHT22;18622;51.998;10.440;2023-07-28T06:44:53;21.20;99.90
32107;DHT22;18622;51.998;10.440;2023-07-28T06:47:21;21.10;99.90
32107;DHT22;18622;51.998;10.440;2023-07-28T06:49:49;21.10;99.90
32107;DHT22;18622;51.998;10.440;2023-07-28T06:52:17;21.10;99.90
32107;DHT22;18622;51.998;10.440;2023-07-28T06:54:44;21.10;99.90
32107;DHT22;18622;51.998;10.440;2023-07-28T06:57:14;21.30;99.90
32107;DHT22;18622;51.998;10.440;2023-07-28T06:59:42;21.50;99.90
32107;DHT22;18622;51.998;10.440;2023-07-28T07:02:10;21.70;99.90
32107;DHT22;18622;51.998;10.440;2023-07-28T07:04:38;21.70;99.90
32107;DHT22;18622;51.998;10.440;2023-07-28T07:07:06;21.80;99.90
32107;DHT22;18622;51.998;10.440;2023-07-28T07:09:33;21.90;99.90
32107;DHT22;18622;51.998;10.440;2023-07-28T07:12:01;22.10;99.90
32107;DHT22;18622;51.998;10.440;2023-07-28T07:14:29;22.30;99.90
32107;DHT22;18622;51.998;10.440;2023-07-28T07:16:57;22.50;99.90
32107;DHT22;18622;51.998;10.440;2023-07-28T07:19:25;22.60;99.90
32107;DHT22;18622;51.998;10.440;2023-07-28T07:21:54;22.70;99.90
32107;DHT22;18622;51.998;10.440;2023-07-28T07:24:22;22.80;99.90
32107;DHT22;18622;51.998;10.440;2023-07-28T07:26:50;22.80;99.90
32107;DHT22;18622;51.998;10.440;2023-07-28T07:29:18;23.00;99.90
32107;DHT22;18622;51.998;10.440;2023-07-28T07:31:45;23.30;99.90
32107;DHT22;18622;51.998;10.440;2023-07-28T07:34:13;23.30;99.90
32107;DHT22;18622;51.998;10.440;2023-07-28T07:36:41;23.30;99.90
32107;DHT22;18622;51.998;10.440;2023-07-28T07:39:09;23.10;99.90
32107;DHT22;18622;51.998;10.440;2023-07-28T07:41:37;23.00;99.90
32107;DHT22;18622;51.998;10.440;2023-07-28T07:44:04;22.70;99.90
32107;DHT22;18622;51.998;10.440;2023-07-28T07:46:32;22.60;99.90
32107;DHT22;18622;51.998;10.440;2023-07-28T07:49:00;22.50;99.90
32107;DHT22;18622;51.998;10.440;2023-07-28T07:51:28;22.40;99.90
32107;DHT22;18622;51.998;10.440;2023-07-28T07:53:56;22.30;99.90
32107;DHT22;18622;51.998;10.440;2023-07-28T07:56:23;22.30;99.90
32107;DHT22;18622;51.998;10.440;2023-07-28T07:58:51;22.20;99.90
32107;DHT22;18622;51.998;10.440;2023-07-28T08:01:19;22.20;99.90
32107;DHT22;18622;51.998;10.440;2023-07-28T08:03:47;22.10;99.90
32107;DHT22;18622;51.998;10.440;2023-07-28T08:06:15;22.10;99.90
32107;DHT22;18622;51.998;10.440;2023-07-28T08:08:43;22.00;99.90
32107;DHT22;18622;51.998;10.440;2023-07-28T08:11:12;21.90;99.90
32107;DHT22;18622;51.998;10.440;2023-07-28T08:13:39;21.90;99.90
32107;DHT22;18622;51.998;10.440;2023-07-28T08:16:07;21.70;99.90
32107;DHT22;18622;51.998;10.440;2023-07-28T08:18:35;21.60;99.90
32107;DHT22;18622;51.998;10.440;2023-07-28T08:21:03;21.70;99.90
32107;DHT22;18622;51.998;10.440;2023-07-28T08:23:31;21.90;99.90
32107;DHT22;18622;51.998;10.440;2023-07-28T08:25:59;22.00;99.90
32107;DHT22;18622;51.998;10.440;2023-07-28T08:28:27;22.20;99.90
32107;DHT22;18622;51.998;10.440;2023-07-28T08:30:55;22.40;99.90
32107;DHT22;18622;51.998;10.440;2023-07-28T08:33:23;22.70;99.90
32107;DHT22;18622;51.998;10.440;2023-07-28T08:35:51;23.10;99.90
32107;DHT22;18622;51.998;10.440;2023-07-28T08:38:18;23.50;99.90
32107;DHT22;18622;51.998;10.440;2023-07-28T08:40:46;23.80;99.90
32107;DHT22;18622;51.998;10.440;2023-07-28T08:43:14;24.00;99.80
32107;DHT22;18622;51.998;10.440;2023-07-28T08:45:42;24.20;99.70
32107;DHT22;18622;51.998;10.440;2023-07-28T08:48:11;24.60;98.90
32107;DHT22;18622;51.998;10.440;2023-07-28T08:50:40;24.90;98.00
32107;DHT22;18622;51.998;10.440;2023-07-28T08:53:07;24.90;97.60
32107;DHT22;18622;51.998;10.440;2023-07-28T08:55:35;24.90;97.40
32107;DHT22;18622;51.998;10.440;2023-07-28T08:58:19;24.90;97.40
32107;DHT22;18622;51.998;10.440;2023-07-28T09:00:48;24.90;97.30
32107;DHT22;18622;51.998;10.440;2023-07-28T09:03:17;25.10;96.90
32107;DHT22;18622;51.998;10.440;2023-07-28T09:05:45;25.30;96.60
32107;DHT22;18622;51.998;10.440;2023-07-28T09:08:16;25.50;96.50
32107;DHT22;18622;51.998;10.440;2023-07-28T09:10:48;25.80;97.00
32107;DHT22;18622;51.998;10.440;2023-07-28T09:13:17;26.40;95.20
32107;DHT22;18622;51.998;10.440;2023-07-28T09:15:45;26.60;95.00
32107;DHT22;18622;51.998;10.440;2023-07-28T09:18:15;27.00;94.60
32107;DHT22;18622;51.998;10.440;2023-07-28T09:20:43;27.30;93.80
32107;DHT22;18622;51.998;10.440;2023-07-28T09:23:14;27.50;93.00
32107;DHT22;18622;51.998;10.440;2023-07-28T09:25:43;27.40;92.00
32107;DHT22;18622;51.998;10.440;2023-07-28T09:28:10;27.30;92.80
32107;DHT22;18622;51.998;10.440;2023-07-28T09:30:47;27.40;92.10
32107;DHT22;18622;51.998;10.440;2023-07-28T09:33:32;27.40;92.30
32107;DHT22;18622;51.998;10.440;2023-07-28T09:36:10;27.40;92.20
32107;DHT22;18622;51.998;10.440;2023-07-28T09:38:39;27.50;92.10
32107;DHT22;18622;51.998;10.440;2023-07-28T09:41:09;27.60;91.30
32107;DHT22;18622;51.998;10.440;2023-07-28T09:43:38;27.50;91.70
32107;DHT22;18622;51.998;10.440;2023-07-28T09:46:08;27.50;92.00
32107;DHT22;18622;51.998;10.440;2023-07-28T09:48:38;27.40;91.20
32107;DHT22;18622;51.998;10.440;2023-07-28T09:51:14;27.50;91.30
32107;DHT22;18622;51.998;10.440;2023-07-28T09:53:40;28.00;90.70
32107;DHT22;18622;51.998;10.440;2023-07-28T09:56:08;28.50;90.20
32107;DHT22;18622;51.998;10.440;2023-07-28T09:58:38;29.10;88.80
32107;DHT22;18622;51.998;10.440;2023-07-28T10:01:08;29.60;85.80
32107;DHT22;18622;51.998;10.440;2023-07-28T10:03:37;29.70;85.20
32107;DHT22;18622;51.998;10.440;2023-07-28T10:06:05;29.80;84.70
32107;DHT22;18622;51.998;10.440;2023-07-28T10:08:33;30.10;82.60
32107;DHT22;18622;51.998;10.440;2023-07-28T10:11:02;30.20;81.30
32107;DHT22;18622;51.998;10.440;2023-07-28T10:13:39;30.10;81.40
32107;DHT22;18622;51.998;10.440;2023-07-28T10:16:05;30.00;80.20
32107;DHT22;18622;51.998;10.440;2023-07-28T10:18:32;30.10;79.70
32107;DHT22;18622;51.998;10.440;2023-07-28T10:21:10;30.10;78.90
32107;DHT22;18622;51.998;10.440;2023-07-28T10:23:39;30.10;77.60
32107;DHT22;18622;51.998;10.440;2023-07-28T10:26:07;30.20;77.40
32107;DHT22;18622;51.998;10.440;2023-07-28T10:28:38;30.50;76.10
32107;DHT22;18622;51.998;10.440;2023-07-28T10:31:09;30.60;74.90
32107;DHT22;18622;51.998;10.440;2023-07-28T10:33:43;30.80;76.60
32107;DHT22;18622;51.998;10.440;2023-07-28T10:36:15;31.40;73.90
32107;DHT22;18622;51.998;10.440;2023-07-28T10:38:43;31.80;72.00
32107;DHT22;18622;51.998;10.440;2023-07-28T10:41:17;31.90;70.20
32107;DHT22;18622;51.998;10.440;2023-07-28T10:43:46;31.90;70.80
32107;DHT22;18622;51.998;10.440;2023-07-28T10:46:18;32.10;68.70
32107;DHT22;18622;51.998;10.440;2023-07-28T10:48:48;32.20;68.50
32107;DHT22;18622;51.998;10.440;2023-07-28T10:51:26;32.00;67.60
32107;DHT22;18622;51.998;10.440;2023-07-28T10:53:56;31.60;67.30
32107;DHT22;18622;51.998;10.440;2023-07-28T10:56:27;31.70;66.20
32107;DHT22;18622;51.998;10.440;2023-07-28T10:59:04;31.50;67.90
32107;DHT22;18622;51.998;10.440;2023-07-28T11:01:37;31.00;69.10
32107;DHT22;18622;51.998;10.440;2023-07-28T11:04:19;30.70;70.20
32107;DHT22;18622;51.998;10.440;2023-07-28T11:06:49;30.60;70.60
32107;DHT22;18622;51.998;10.440;2023-07-28T11:09:19;30.50;69.80
32107;DHT22;18622;51.998;10.440;2023-07-28T11:11:49;30.10;72.00
32107;DHT22;18622;51.998;10.440;2023-07-28T11:14:16;29.90;72.10
32107;DHT22;18622;51.998;10.440;2023-07-28T11:16:44;29.80;73.00
32107;DHT22;18622;51.998;10.440;2023-07-28T11:19:14;30.00;72.20
32107;DHT22;18622;51.998;10.440;2023-07-28T11:21:44;30.00;71.70
32107;DHT22;18622;51.998;10.440;2023-07-28T11:24:17;29.70;72.80
32107;DHT22;18622;51.998;10.440;2023-07-28T11:26:44;29.80;73.70
32107;DHT22;18622;51.998;10.440;2023-07-28T11:29:15;30.30;74.20
32107;DHT22;18622;51.998;10.440;2023-07-28T11:31:43;31.20;71.30
32107;DHT22;18622;51.998;10.440;2023-07-28T11:34:15;31.90;69.10
32107;DHT22;18622;51.998;10.440;2023-07-28T11:36:43;32.00;68.60
32107;DHT22;18622;51.998;10.440;2023-07-28T11:39:11;31.90;67.70
32107;DHT22;18622;51.998;10.440;2023-07-28T11:41:41;31.50;67.70
32107;DHT22;18622;51.998;10.440;2023-07-28T11:44:09;31.10;69.00
32107;DHT22;18622;51.998;10.440;2023-07-28T11:46:38;30.90;69.40
32107;DHT22;18622;51.998;10.440;2023-07-28T11:49:17;31.00;69.00
32107;DHT22;18622;51.998;10.440;2023-07-28T11:51:45;31.10;69.80
32107;DHT22;18622;51.998;10.440;2023-07-28T11:54:16;31.30;68.30
32107;DHT22;18622;51.998;10.440;2023-07-28T11:56:47;31.50;66.60
32107;DHT22;18622;51.998;10.440;2023-07-28T11:59:15;31.30;66.00
32107;DHT22;18622;51.998;10.440;2023-07-28T12:02:02;31.20;67.60
32107;DHT22;18622;51.998;10.440;2023-07-28T12:04:34;31.60;66.50
32107;DHT22;18622;51.998;10.440;2023-07-28T12:07:17;32.40;66.90
32107;DHT22;18622;51.998;10.440;2023-07-28T12:09:49;33.20;63.20
32107;DHT22;18622;51.998;10.440;2023-07-28T12:12:23;33.00;62.90
32107;DHT22;18622;51.998;10.440;2023-07-28T12:14:53;32.60;63.10
32107;DHT22;18622;51.998;10.440;2023-07-28T12:17:23;32.20;63.90
32107;DHT22;18622;51.998;10.440;2023-07-28T12:19:59;31.80;63.50
32107;DHT22;18622;51.998;10.440;2023-07-28T12:22:28;31.20;65.00
32107;DHT22;18622;51.998;10.440;2023-07-28T12:24:56;30.90;67.40
32107;DHT22;18622;51.998;10.440;2023-07-28T12:27:24;31.00;65.30
32107;DHT22;18622;51.998;10.440;2023-07-28T12:29:53;31.50;65.00
32107;DHT22;18622;51.998;10.440;2023-07-28T12:32:21;31.70;63.30
32107;DHT22;18622;51.998;10.440;2023-07-28T12:34:50;31.30;63.90
32107;DHT22;18622;51.998;10.440;2023-07-28T12:37:19;30.70;65.20
32107;DHT22;18622;51.998;10.440;2023-07-28T12:39:48;30.30;66.10
32107;DHT22;18622;51.998;10.440;2023-07-28T12:42:16;30.10;67.00
32107;DHT22;18622;51.998;10.440;2023-07-28T12:44:44;30.30;66.80
32107;DHT22;18622;51.998;10.440;2023-07-28T12:47:11;30.60;67.20
32107;DHT22;18622;51.998;10.440;2023-07-28T12:49:39;31.70;67.10
32107;DHT22;18622;51.998;10.440;2023-07-28T12:52:07;33.30;64.50
32107;DHT22;18622;51.998;10.440;2023-07-28T12:54:35;34.70;61.10
32107;DHT22;18622;51.998;10.440;2023-07-28T12:57:04;35.50;56.90
32107;DHT22;18622;51.998;10.440;2023-07-28T12:59:33;35.60;57.10
32107;DHT22;18622;51.998;10.440;2023-07-28T13:02:01;35.50;56.40
32107;DHT22;18622;51.998;10.440;2023-07-28T13:04:29;35.60;55.80
32107;DHT22;18622;51.998;10.440;2023-07-28T13:06:57;35.70;55.20
32107;DHT22;18622;51.998;10.440;2023-07-28T13:09:25;35.70;56.20
32107;DHT22;18622;51.998;10.440;2023-07-28T13:11:53;35.80;55.30
32107;DHT22;18622;51.998;10.440;2023-07-28T13:14:21;36.10;55.10
32107;DHT22;18622;51.998;10.440;2023-07-28T13:16:48;36.40;53.90
32107;DHT22;18622;51.998;10.440;2023-07-28T13:19:17;36.40;52.70
32107;DHT22;18622;51.998;10.440;2023-07-28T13:21:45;36.40;52.80
32107;DHT22;18622;51.998;10.440;2023-07-28T13:24:13;36.40;53.10
32107;DHT22;18622;51.998;10.440;2023-07-28T13:26:40;36.70;52.50
32107;DHT22;18622;51.998;10.440;2023-07-28T13:29:08;36.90;52.00
32107;DHT22;18622;51.998;10.440;2023-07-28T13:31:36;36.90;51.40
32107;DHT22;18622;51.998;10.440;2023-07-28T13:34:04;36.80;52.30
32107;DHT22;18622;51.998;10.440;2023-07-28T13:36:32;36.80;50.80
32107;DHT22;18622;51.998;10.440;2023-07-28T13:38:59;36.80;50.60
32107;DHT22;18622;51.998;10.440;2023-07-28T13:41:27;36.30;51.80
32107;DHT22;18622;51.998;10.440;2023-07-28T13:43:55;36.30;51.50
32107;DHT22;18622;51.998;10.440;2023-07-28T13:46:23;36.20;52.60
32107;DHT22;18622;51.998;10.440;2023-07-28T13:48:51;36.30;51.50
32107;DHT22;18622;51.998;10.440;2023-07-28T13:51:18;36.20;52.40
32107;DHT22;18622;51.998;10.440;2023-07-28T13:53:46;36.30;51.80
32107;DHT22;18622;51.998;10.440;2023-07-28T13:56:14;36.40;50.90
32107;DHT22;18622;51.998;10.440;2023-07-28T13:58:42;36.50;49.10
32107;DHT22;18622;51.998;10.440;2023-07-28T14:01:10;36.10;50.30
32107;DHT22;18622;51.998;10.440;2023-07-28T14:03:38;35.90;50.90
32107;DHT22;18622;51.998;10.440;2023-07-28T14:06:05;35.90;50.30
32107;DHT22;18622;51.998;10.440;2023-07-28T14:08:33;35.80;50.70
32107;DHT22;18622;51.998;10.440;2023-07-28T14:11:01;36.00;51.20
32107;DHT22;18622;51.998;10.440;2023-07-28T14:13:29;36.40;51.80
32107;DHT22;18622;51.998;10.440;2023-07-28T14:15:58;37.00;51.00
32107;DHT22;18622;51.998;10.440;2023-07-28T14:18:27;37.10;49.50
32107;DHT22;18622;51.998;10.440;2023-07-28T14:20:54;37.00;50.30
32107;DHT22;18622;51.998;10.440;2023-07-28T14:23:24;36.80;49.20
32107;DHT22;18622;51.998;10.440;2023-07-28T14:25:53;36.40;49.90
32107;DHT22;18622;51.998;10.440;2023-07-28T14:28:21;36.10;50.70
32107;DHT22;18622;51.998;10.440;2023-07-28T14:30:50;36.00;51.40
32107;DHT22;18622;51.998;10.440;2023-07-28T14:33:18;36.10;51.30
32107;DHT22;18622;51.998;10.440;2023-07-28T14:35:48;36.10;52.00
32107;DHT22;18622;51.998;10.440;2023-07-28T14:38:16;36.00;50.80
32107;DHT22;18622;51.998;10.440;2023-07-28T14:40:44;35.70;51.20
32107;DHT22;18622;51.998;10.440;2023-07-28T14:43:14;35.50;51.80
32107;DHT22;18622;51.998;10.440;2023-07-28T14:45:42;35.30;52.50
32107;DHT22;18622;51.998;10.440;2023-07-28T14:48:10;35.40;51.20
32107;DHT22;18622;51.998;10.440;2023-07-28T14:50:38;35.60;50.80
32107;DHT22;18622;51.998;10.440;2023-07-28T14:55:53;34.70;51.80
32107;DHT22;18622;51.998;10.440;2023-07-28T14:58:20;34.10;54.30
32107;DHT22;18622;51.998;10.440;2023-07-28T15:00:48;34.60;53.90
32107;DHT22;18622;51.998;10.440;2023-07-28T15:03:16;35.10;52.90
32107;DHT22;18622;51.998;10.440;2023-07-28T15:05:44;35.50;52.50
32107;DHT22;18622;51.998;10.440;2023-07-28T15:08:13;35.70;52.30
32107;DHT22;18622;51.998;10.440;2023-07-28T15:10:42;35.80;52.10
32107;DHT22;18622;51.998;10.440;2023-07-28T15:13:10;36.00;52.00
32107;DHT22;18622;51.998;10.440;2023-07-28T15:15:37;36.10;50.60
32107;DHT22;18622;51.998;10.440;2023-07-28T15:18:05;35.80;50.50
32107;DHT22;18622;51.998;10.440;2023-07-28T15:20:34;35.60;51.20
32107;DHT22;18622;51.998;10.440;2023-07-28T15:23:01;35.70;51.40
32107;DHT22;18622;51.998;10.440;2023-07-28T15:25:29;35.70;50.90
32107;DHT22;18622;51.998;10.440;2023-07-28T15:27:57;35.90;51.90
32107;DHT22;18622;51.998;10.440;2023-07-28T15:30:24;36.40;50.60
32107;DHT22;18622;51.998;10.440;2023-07-28T15:32:52;36.80;48.90
32107;DHT22;18622;51.998;10.440;2023-07-28T15:35:19;37.00;49.30
32107;DHT22;18622;51.998;10.440;2023-07-28T15:37:47;37.10;48.30
32107;DHT22;18622;51.998;10.440;2023-07-28T15:40:14;36.90;48.70
32107;DHT22;18622;51.998;10.440;2023-07-28T15:42:42;36.60;49.10
32107;DHT22;18622;51.998;10.440;2023-07-28T15:45:10;36.40;48.70
32107;DHT22;18622;51.998;10.440;2023-07-28T15:47:37;36.40;49.00
32107;DHT22;18622;51.998;10.440;2023-07-28T15:50:06;36.50;49.40
32107;DHT22;18622;51.998;10.440;2023-07-28T15:52:34;36.80;49.00
32107;DHT22;18622;51.998;10.440;2023-07-28T15:55:02;37.10;48.60
32107;DHT22;18622;51.998;10.440;2023-07-28T15:57:30;37.50;48.60
32107;DHT22;18622;51.998;10.440;2023-07-28T15:59:58;37.90;48.80
32107;DHT22;18622;51.998;10.440;2023-07-28T16:02:25;38.30;47.40
32107;DHT22;18622;51.998;10.440;2023-07-28T16:04:53;38.30;46.80
32107;DHT22;18622;51.998;10.440;2023-07-28T16:07:20;38.40;46.60
32107;DHT22;18622;51.998;10.440;2023-07-28T16:09:49;38.20;45.90
32107;DHT22;18622;51.998;10.440;2023-07-28T16:12:20;37.80;46.60
32107;DHT22;18622;51.998;10.440;2023-07-28T16:14:49;37.40;47.00
32107;DHT22;18622;51.998;10.440;2023-07-28T16:17:21;37.30;47.40
32107;DHT22;18622;51.998;10.440;2023-07-28T16:20:14;37.20;46.60
32107;DHT22;18622;51.998;10.440;2023-07-28T16:22:48;36.80;47.70
32107;DHT22;18622;51.998;10.440;2023-07-28T16:25:24;36.50;47.30
32107;DHT22;18622;51.998;10.440;2023-07-28T16:28:02;35.90;48.50
32107;DHT22;18622;51.998;10.440;2023-07-28T16:30:36;35.70;48.50
32107;DHT22;18622;51.998;10.440;2023-07-28T16:33:11;35.30;49.40
32107;DHT22;18622;51.998;10.440;2023-07-28T16:35:39;35.30;49.40
32107;DHT22;18622;51.998;10.440;2023-07-28T16:38:07;35.50;49.60
32107;DHT22;18622;51.998;10.440;2023-07-28T16:40:34;35.80;48.80
32107;DHT22;18622;51.998;10.440;2023-07-28T16:43:02;36.20;48.80
32107;DHT22;18622;51.998;10.440;2023-07-28T16:45:29;36.40;47.60
32107;DHT22;18622;51.998;10.440;2023-07-28T16:47:58;36.40;47.20
32107;DHT22;18622;51.998;10.440;2023-07-28T16:53:21;36.40;47.60
32107;DHT22;18622;51.998;10.440;2023-07-28T16:55:56;35.80;47.80
32107;DHT22;18622;51.998;10.440;2023-07-28T16:58:35;34.50;49.00
32107;DHT22;18622;51.998;10.440;2023-07-28T17:01:05;33.70;51.00
32107;DHT22;18622;51.998;10.440;2023-07-28T17:03:33;33.70;51.20
32107;DHT22;18622;51.998;10.440;2023-07-28T17:06:01;33.90;51.10
32107;DHT22;18622;51.998;10.440;2023-07-28T17:08:34;33.60;51.10
32107;DHT22;18622;51.998;10.440;2023-07-28T17:11:03;33.00;52.20
32107;DHT22;18622;51.998;10.440;2023-07-28T17:13:32;32.20;52.40
32107;DHT22;18622;51.998;10.440;2023-07-28T17:16:00;31.50;54.10
32107;DHT22;18622;51.998;10.440;2023-07-28T17:18:28;31.30;54.90
32107;DHT22;18622;51.998;10.440;2023-07-28T17:20:58;31.50;55.20
32107;DHT22;18622;51.998;10.440;2023-07-28T17:23:26;32.00;54.90
32107;DHT22;18622;51.998;10.440;2023-07-28T17:25:54;32.40;54.20
32107;DHT22;18622;51.998;10.440;2023-07-28T17:28:22;32.30;53.40
32107;DHT22;18622;51.998;10.440;2023-07-28T17:30:50;31.80;54.50
32107;DHT22;18622;51.998;10.440;2023-07-28T17:33:17;31.30;55.10
32107;DHT22;18622;51.998;10.440;2023-07-28T17:35:45;30.90;55.80
32107;DHT22;18622;51.998;10.440;2023-07-28T17:38:13;30.50;56.10
32107;DHT22;18622;51.998;10.440;2023-07-28T17:40:41;30.00;56.70
32107;DHT22;18622;51.998;10.440;2023-07-28T17:43:09;29.60;58.00
32107;DHT22;18622;51.998;10.440;2023-07-28T17:45:37;29.20;58.80
32107;DHT22;18622;51.998;10.440;2023-07-28T17:48:05;29.00;59.30
32107;DHT22;18622;51.998;10.440;2023-07-28T17:50:32;28.70;59.90
32107;DHT22;18622;51.998;10.440;2023-07-28T17:53:00;28.50;61.10
32107;DHT22;18622;51.998;10.440;2023-07-28T17:55:28;28.50;60.90
32107;DHT22;18622;51.998;10.440;2023-07-28T17:57:56;28.40;61.10
32107;DHT22;18622;51.998;10.440;2023-07-28T18:00:24;28.30;61.30
32107;DHT22;18622;51.998;10.440;2023-07-28T18:02:51;28.20;61.60
32107;DHT22;18622;51.998;10.440;2023-07-28T18:05:19;28.10;62.50
32107;DHT22;18622;51.998;10.440;2023-07-28T18:07:47;28.00;63.40
32107;DHT22;18622;51.998;10.440;2023-07-28T18:10:15;28.00;63.40
32107;DHT22;18622;51.998;10.440;2023-07-28T18:12:43;27.80;63.80
32107;DHT22;18622;51.998;10.440;2023-07-28T18:15:11;27.70;64.30
32107;DHT22;18622;51.998;10.440;2023-07-28T18:17:39;27.50;64.20
32107;DHT22;18622;51.998;10.440;2023-07-28T18:20:07;27.30;64.60
32107;DHT22;18622;51.998;10.440;2023-07-28T18:22:35;27.20;65.10
32107;DHT22;18622;51.998;10.440;2023-07-28T18:25:03;27.00;65.10
32107;DHT22;18622;51.998;10.440;2023-07-28T18:27:31;26.80;65.70
32107;DHT22;18622;51.998;10.440;2023-07-28T18:29:59;26.70;66.50
32107;DHT22;18622;51.998;10.440;2023-07-28T18:32:27;26.50;66.90
32107;DHT22;18622;51.998;10.440;2023-07-28T18:34:55;26.40;67.10
32107;DHT22;18622;51.998;10.440;2023-07-28T18:37:22;26.20;67.40
32107;DHT22;18622;51.998;10.440;2023-07-28T18:39:50;26.10;68.10
32107;DHT22;18622;51.998;10.440;2023-07-28T18:42:18;25.90;68.80
32107;DHT22;18622;51.998;10.440;2023-07-28T18:44:46;25.70;69.30
32107;DHT22;18622;51.998;10.440;2023-07-28T18:47:14;25.60;69.80
32107;DHT22;18622;51.998;10.440;2023-07-28T18:49:42;25.50;70.40
32107;DHT22;18622;51.998;10.440;2023-07-28T18:52:09;25.30;71.10
32107;DHT22;18622;51.998;10.440;2023-07-28T18:54:37;25.20;72.30
32107;DHT22;18622;51.998;10.440;2023-07-28T18:57:05;25.00;73.80
32107;DHT22;18622;51.998;10.440;2023-07-28T18:59:33;24.80;75.00
32107;DHT22;18622;51.998;10.440;2023-07-28T19:02:01;24.60;76.20
32107;DHT22;18622;51.998;10.440;2023-07-28T19:04:29;24.30;77.20
32107;DHT22;18622;51.998;10.440;2023-07-28T19:06:56;24.10;78.40